createdAt,value
2023-03-29T00:00:47.944Z,6.97
2023-03-29T00:03:17.488Z,5.33
2023-03-29T00:05:45.692Z,5.50
2023-03-29T00:08:15.055Z,5.87
2023-03-29T00:10:43.334Z,5.43
2023-03-29T00:13:11.451Z,5.57
2023-03-29T00:15:39.435Z,5.50
2023-03-29T00:18:07.568Z,4.70
2023-03-29T00:20:36.974Z,4.93
2023-03-29T00:23:05.022Z,5.30
2023-03-29T00:25:33.055Z,5.10
2023-03-29T00:28:01.038Z,4.80
2023-03-29T00:30:29.101Z,4.30
2023-03-29T00:32:57.214Z,5.10
2023-03-29T00:35:25.631Z,5.03
2023-03-29T00:37:57.700Z,4.30
2023-03-29T00:40:26.163Z,5.07
2023-03-29T00:42:56.145Z,5.13
2023-03-29T00:45:27.521Z,4.77
2023-03-29T00:47:59.965Z,5.13
2023-03-29T00:50:31.852Z,4.40
2023-03-29T00:53:05.764Z,4.70
2023-03-29T00:55:38.361Z,5.77
2023-03-29T00:58:09.904Z,5.27
2023-03-29T01:00:42.890Z,4.87
2023-03-29T01:03:14.377Z,5.00
2023-03-29T01:05:47.659Z,5.20
2023-03-29T01:08:21.808Z,5.17
2023-03-29T01:10:53.175Z,4.60
2023-03-29T01:13:27.195Z,4.93
2023-03-29T01:15:57.457Z,5.00
2023-03-29T01:18:26.050Z,4.77
2023-03-29T01:21:10.078Z,4.70
2023-03-29T01:24:07.603Z,4.60
2023-03-29T01:26:48.682Z,5.07
2023-03-29T01:29:25.242Z,5.03
2023-03-29T01:31:59.162Z,4.97
2023-03-29T01:34:34.268Z,5.13
2023-03-29T01:37:07.260Z,5.10
2023-03-29T01:39:35.474Z,4.57
2023-03-29T01:42:14.348Z,4.90
2023-03-29T01:44:53.343Z,5.33
2023-03-29T01:47:28.564Z,5.30
2023-03-29T01:50:08.071Z,4.90
2023-03-29T01:52:40.809Z,4.93
2023-03-29T01:55:13.058Z,5.87
2023-03-29T01:57:45.651Z,6.07
2023-03-29T02:00:20.157Z,5.70
2023-03-29T02:02:49.778Z,6.30
2023-03-29T02:05:19.667Z,5.93
2023-03-29T02:07:50.489Z,5.53
2023-03-29T02:10:19.822Z,6.23
2023-03-29T02:12:48.244Z,6.67
2023-03-29T02:15:20.306Z,6.83
2023-03-29T02:17:51.096Z,6.30
2023-03-29T02:20:23.542Z,6.37
2023-03-29T02:22:58.564Z,7.30
2023-03-29T02:25:27.044Z,7.90
2023-03-29T02:27:55.445Z,8.43
2023-03-29T02:30:47.109Z,7.53
2023-03-29T02:33:18.398Z,6.97
2023-03-29T02:35:50.764Z,7.80
2023-03-29T02:38:18.997Z,7.77
2023-03-29T02:40:47.801Z,7.97
2023-03-29T02:43:18.244Z,7.80
2023-03-29T02:45:48.568Z,9.53
2023-03-29T02:48:21.073Z,10.33
2023-03-29T02:50:52.092Z,10.07
2023-03-29T02:53:24.445Z,9.93
2023-03-29T02:55:53.865Z,10.30
2023-03-29T02:58:28.852Z,11.53
2023-03-29T03:01:02.577Z,11.33
2023-03-29T03:03:31.762Z,12.77
2023-03-29T03:06:02.606Z,12.90
2023-03-29T03:08:32.107Z,12.33
2023-03-29T03:11:00.704Z,12.47
2023-03-29T03:13:29.064Z,14.70
2023-03-29T03:15:59.013Z,13.30
2023-03-29T03:18:27.707Z,13.60
2023-03-29T03:20:57.024Z,13.37
2023-03-29T03:23:25.521Z,13.73
2023-03-29T03:25:55.252Z,13.93
2023-03-29T03:28:25.150Z,14.57
2023-03-29T03:30:54.185Z,13.53
2023-03-29T03:33:42.266Z,13.60
2023-03-29T03:36:37.421Z,16.27
2023-03-29T03:39:07.028Z,15.67
2023-03-29T03:41:35.680Z,15.67
2023-03-29T03:44:04.328Z,16.37
2023-03-29T03:46:33.317Z,12.40
2023-03-29T03:49:06.415Z,16.00
2023-03-29T03:51:39.330Z,15.97
2023-03-29T03:54:08.083Z,16.93
2023-03-29T03:56:36.097Z,16.20
2023-03-29T03:59:18.224Z,21.13
2023-03-29T04:01:54.283Z,16.20
2023-03-29T04:04:26.248Z,17.17
2023-03-29T04:07:07.748Z,16.10
2023-03-29T04:09:58.411Z,15.83
2023-03-29T04:12:41.911Z,16.93
2023-03-29T04:15:12.114Z,16.83
2023-03-29T04:17:45.618Z,16.17
2023-03-29T04:20:21.832Z,16.67
2023-03-29T04:22:50.062Z,15.63
2023-03-29T04:25:18.791Z,17.47
2023-03-29T04:27:50.417Z,16.87
2023-03-29T04:30:30.215Z,15.80
2023-03-29T04:33:07.390Z,16.90
2023-03-29T04:35:38.945Z,16.40
2023-03-29T04:38:11.402Z,17.40
2023-03-29T04:40:40.584Z,18.60
2023-03-29T04:43:47.635Z,16.50
2023-03-29T04:46:25.447Z,15.13
2023-03-29T04:49:12.598Z,14.70
2023-03-29T04:51:44.846Z,14.30
2023-03-29T04:54:13.157Z,15.03
2023-03-29T04:56:57.087Z,13.60
2023-03-29T04:59:40.595Z,13.57
2023-03-29T05:02:32.908Z,13.40
2023-03-29T05:05:01.122Z,12.83
2023-03-29T05:07:31.187Z,11.97
2023-03-29T05:09:59.707Z,12.93
2023-03-29T05:12:28.528Z,12.60
2023-03-29T05:14:58.858Z,12.50
2023-03-29T05:17:28.665Z,12.30
2023-03-29T05:20:09.312Z,11.47
2023-03-29T05:22:40.181Z,10.80
2023-03-29T05:25:13.285Z,11.60
2023-03-29T05:27:45.779Z,11.67
2023-03-29T05:30:15.247Z,11.90
2023-03-29T05:32:59.246Z,11.17
2023-03-29T05:35:27.903Z,11.77
2023-03-29T05:37:58.460Z,11.07
2023-03-29T05:40:27.174Z,11.10
2023-03-29T05:43:15.144Z,11.47
2023-03-29T05:45:43.411Z,11.10
2023-03-29T05:48:11.891Z,10.60
2023-03-29T05:50:47.080Z,11.13
2023-03-29T05:53:16.867Z,10.97
2023-03-29T05:55:46.631Z,10.40
2023-03-29T05:58:17.982Z,11.40
2023-03-29T06:00:46.691Z,11.40
2023-03-29T06:03:30.222Z,10.20
2023-03-29T06:06:02.262Z,10.30
2023-03-29T06:08:32.687Z,9.30
2023-03-29T06:11:10.750Z,10.90
2023-03-29T06:14:17.640Z,10.23
2023-03-29T06:16:56.559Z,10.30
2023-03-29T06:19:25.017Z,9.93
2023-03-29T06:21:54.254Z,9.90
2023-03-29T06:24:27.829Z,9.90
2023-03-29T06:27:04.816Z,9.47
2023-03-29T06:29:33.086Z,9.13
2023-03-29T06:32:02.045Z,9.70
2023-03-29T06:34:56.476Z,9.90
2023-03-29T06:37:38.949Z,10.13
2023-03-29T06:40:27.328Z,8.70
2023-03-29T06:42:57.833Z,9.80
2023-03-29T06:45:41.394Z,9.73
2023-03-29T06:48:18.711Z,9.43
2023-03-29T06:50:48.416Z,8.80
2023-03-29T06:53:18.035Z,9.80
2023-03-29T06:55:56.345Z,8.57
2023-03-29T06:58:40.803Z,9.00
2023-03-29T07:01:33.124Z,8.97
2023-03-29T07:04:08.833Z,9.00
2023-03-29T07:07:01.534Z,9.23
2023-03-29T07:09:32.349Z,9.30
2023-03-29T07:12:20.738Z,9.63
2023-03-29T07:14:48.858Z,10.07
2023-03-29T07:17:18.502Z,10.33
2023-03-29T07:19:48.868Z,12.07
2023-03-29T07:22:35.768Z,8.70
2023-03-29T07:25:05.807Z,8.47
2023-03-29T07:27:35.433Z,8.60
2023-03-29T07:30:06.512Z,9.13
2023-03-29T07:32:36.306Z,8.93
2023-03-29T07:35:25.438Z,9.20
2023-03-29T07:37:54.928Z,8.77
2023-03-29T07:40:24.747Z,8.60
2023-03-29T07:43:00.546Z,8.40
2023-03-29T07:45:32.624Z,7.70
2023-03-29T07:48:04.985Z,8.40
2023-03-29T07:50:52.564Z,8.23
2023-03-29T07:53:26.948Z,8.23
2023-03-29T07:55:57.009Z,8.80
2023-03-29T07:58:47.539Z,8.40
2023-03-29T08:01:19.871Z,8.30
2023-03-29T08:04:08.801Z,9.57
2023-03-29T08:07:09.835Z,8.50
2023-03-29T08:09:55.297Z,8.93
2023-03-29T08:12:32.426Z,9.10
2023-03-29T08:15:02.732Z,9.10
2023-03-29T08:17:35.161Z,9.50
2023-03-29T08:20:05.867Z,9.30
2023-03-29T08:22:34.389Z,10.33
2023-03-29T08:25:17.610Z,9.77
2023-03-29T08:27:49.769Z,10.23
2023-03-29T08:30:28.765Z,10.60
2023-03-29T08:32:58.239Z,12.53
2023-03-29T08:35:26.531Z,10.83
2023-03-29T08:38:16.668Z,11.83
2023-03-29T08:40:48.447Z,11.77
2023-03-29T08:43:49.468Z,12.30
2023-03-29T08:46:42.456Z,12.20
2023-03-29T08:49:30.104Z,12.57
2023-03-29T08:52:02.196Z,13.10
2023-03-29T08:54:38.253Z,13.00
2023-03-29T08:57:17.372Z,13.10
2023-03-29T08:59:52.787Z,13.60
2023-03-29T09:02:26.164Z,13.17
2023-03-29T09:05:04.768Z,12.03
2023-03-29T09:07:43.134Z,12.70
2023-03-29T09:10:15.613Z,13.13
2023-03-29T09:13:04.264Z,12.47
2023-03-29T09:15:39.772Z,12.97
2023-03-29T09:18:31.376Z,13.30
2023-03-29T09:21:04.371Z,12.53
2023-03-29T09:24:05.058Z,12.43
2023-03-29T09:26:58.996Z,13.00
2023-03-29T09:30:06.043Z,14.00
2023-03-29T09:32:52.715Z,14.13
2023-03-29T09:35:31.952Z,14.30
2023-03-29T09:38:00.665Z,16.20
2023-03-29T09:40:35.310Z,15.90
2023-03-29T09:43:15.331Z,15.30
2023-03-29T09:45:44.602Z,15.70
2023-03-29T09:48:14.968Z,15.67
2023-03-29T09:50:51.262Z,16.00
2023-03-29T09:53:21.871Z,15.43
2023-03-29T09:56:15.387Z,17.20
2023-03-29T09:58:59.001Z,16.20
2023-03-29T10:01:38.568Z,16.10
2023-03-29T10:04:10.246Z,17.17
2023-03-29T10:06:49.282Z,17.37
2023-03-29T10:09:22.017Z,16.50
2023-03-29T10:11:56.738Z,15.60
2023-03-29T10:14:34.411Z,16.57
2023-03-29T10:17:06.941Z,15.67
2023-03-29T10:19:36.785Z,16.50
2023-03-29T10:22:08.717Z,16.03
2023-03-29T10:24:37.038Z,15.70
2023-03-29T10:27:08.474Z,17.53
2023-03-29T10:29:39.744Z,17.70
2023-03-29T10:32:16.417Z,18.67
2023-03-29T10:34:46.840Z,17.10
2023-03-29T10:37:19.269Z,17.47
2023-03-29T10:39:49.070Z,19.03
2023-03-29T10:42:19.144Z,17.70
2023-03-29T10:44:55.327Z,18.07
2023-03-29T10:47:23.993Z,18.87
2023-03-29T10:49:56.467Z,19.10
2023-03-29T10:52:26.697Z,17.70
2023-03-29T10:54:56.915Z,16.60
2023-03-29T10:57:31.478Z,17.43
2023-03-29T11:00:04.825Z,16.97
2023-03-29T11:03:00.416Z,17.93
2023-03-29T11:05:36.824Z,17.27
2023-03-29T11:08:32.998Z,17.33
2023-03-29T11:11:13.146Z,17.13
2023-03-29T11:13:48.894Z,17.20
2023-03-29T11:16:28.150Z,16.43
2023-03-29T11:19:21.776Z,18.47
2023-03-29T11:21:56.962Z,16.80
2023-03-29T11:24:43.353Z,15.30
2023-03-29T11:27:20.565Z,17.50
2023-03-29T11:29:59.641Z,16.50
2023-03-29T11:32:33.302Z,16.60
2023-03-29T11:35:09.062Z,17.10
2023-03-29T11:37:46.326Z,16.00
2023-03-29T11:40:36.235Z,15.77
2023-03-29T11:43:07.051Z,14.83
2023-03-29T11:45:39.897Z,16.33
2023-03-29T11:48:14.571Z,17.30
2023-03-29T11:50:49.422Z,17.60
2023-03-29T11:53:23.082Z,16.13
2023-03-29T11:55:53.781Z,16.57
2023-03-29T11:58:27.542Z,16.63
2023-03-29T12:00:59.429Z,17.23
2023-03-29T12:03:38.637Z,16.60
2023-03-29T12:06:13.844Z,16.43
2023-03-29T12:08:46.103Z,16.13
2023-03-29T12:11:21.525Z,16.27
2023-03-29T12:13:54.824Z,17.27
2023-03-29T12:16:28.469Z,16.73
2023-03-29T12:18:59.123Z,16.87
2023-03-29T12:21:30.581Z,16.20
2023-03-29T12:24:00.303Z,17.07
2023-03-29T12:26:50.106Z,16.93
2023-03-29T12:29:33.585Z,17.67
2023-03-29T12:32:17.127Z,18.33
2023-03-29T12:35:10.240Z,16.70
2023-03-29T12:38:08.247Z,16.57
2023-03-29T12:41:10.622Z,17.10
2023-03-29T12:44:03.473Z,16.73
2023-03-29T12:46:43.193Z,16.80
2023-03-29T12:49:17.202Z,15.90
2023-03-29T12:51:46.501Z,17.60
2023-03-29T12:54:18.050Z,14.93
2023-03-29T12:56:58.208Z,16.43
2023-03-29T12:59:36.839Z,16.00
2023-03-29T13:02:34.799Z,15.07
2023-03-29T13:05:04.979Z,14.30
2023-03-29T13:07:47.047Z,15.97
2023-03-29T13:10:37.874Z,17.47
2023-03-29T13:13:15.514Z,15.00
2023-03-29T13:15:46.164Z,15.43
2023-03-29T13:18:34.077Z,15.70
2023-03-29T13:21:12.390Z,16.20
2023-03-29T13:23:52.887Z,14.77
2023-03-29T13:26:32.567Z,16.70
2023-03-29T13:29:26.862Z,14.87
2023-03-29T13:32:07.208Z,15.77
2023-03-29T13:34:44.141Z,15.83
2023-03-29T13:37:25.371Z,16.27
2023-03-29T13:39:55.576Z,15.63
2023-03-29T13:42:26.997Z,15.83
2023-03-29T13:45:12.077Z,16.20
2023-03-29T13:47:58.369Z,15.87
2023-03-29T13:50:39.804Z,16.20
2023-03-29T13:53:14.006Z,17.43
2023-03-29T13:55:48.869Z,16.27
2023-03-29T13:58:28.678Z,16.10
2023-03-29T14:01:02.473Z,16.03
2023-03-29T14:03:41.512Z,15.60
2023-03-29T14:06:12.769Z,19.20
2023-03-29T14:08:43.232Z,16.10
2023-03-29T14:11:23.018Z,15.30
2023-03-29T14:13:54.043Z,14.37
2023-03-29T14:16:22.661Z,13.97
2023-03-29T14:18:52.827Z,14.10
2023-03-29T14:21:22.076Z,15.03
2023-03-29T14:23:56.237Z,13.97
2023-03-29T14:26:27.230Z,15.13
2023-03-29T14:28:57.750Z,13.87
2023-03-29T14:31:27.455Z,13.50
2023-03-29T14:33:59.031Z,15.10
2023-03-29T14:36:28.241Z,15.43
2023-03-29T14:38:59.571Z,15.70
2023-03-29T14:41:31.614Z,15.70
2023-03-29T14:44:00.683Z,14.00
2023-03-29T14:46:29.030Z,14.40
2023-03-29T14:48:59.838Z,16.50
2023-03-29T14:51:30.499Z,14.40
2023-03-29T14:53:59.951Z,15.63
2023-03-29T14:56:28.579Z,14.83
2023-03-29T14:58:57.774Z,16.20
2023-03-29T15:01:27.903Z,16.13
2023-03-29T15:04:03.147Z,16.83
2023-03-29T15:06:32.697Z,16.37
2023-03-29T15:09:06.118Z,16.67
2023-03-29T15:11:35.956Z,15.57
2023-03-29T15:14:06.279Z,18.60
2023-03-29T15:16:34.583Z,17.00
2023-03-29T15:19:04.398Z,16.20
2023-03-29T15:21:36.219Z,15.63
2023-03-29T15:24:06.076Z,15.50
2023-03-29T15:26:36.039Z,15.73
2023-03-29T15:29:09.221Z,15.97
2023-03-29T15:31:39.424Z,16.30
2023-03-29T15:34:12.445Z,14.20
2023-03-29T15:36:43.165Z,13.77
2023-03-29T15:39:13.505Z,13.37
2023-03-29T15:41:41.796Z,12.50
2023-03-29T15:44:10.191Z,13.00
2023-03-29T15:46:38.526Z,12.17
2023-03-29T15:49:10.706Z,11.60
2023-03-29T15:51:38.806Z,11.40
2023-03-29T15:54:07.865Z,11.90
2023-03-29T15:56:41.932Z,11.53
2023-03-29T15:59:13.233Z,12.47
2023-03-29T16:01:41.748Z,12.83
2023-03-29T16:04:14.302Z,13.07
2023-03-29T16:06:43.446Z,13.70
2023-03-29T16:09:12.852Z,14.07
2023-03-29T16:11:41.858Z,13.87
2023-03-29T16:14:22.874Z,13.87
2023-03-29T16:16:51.363Z,14.30
2023-03-29T16:19:20.914Z,14.10
2023-03-29T16:21:49.364Z,15.00
2023-03-29T16:24:19.944Z,14.67
2023-03-29T16:26:48.855Z,14.20
2023-03-29T16:29:17.302Z,13.80
2023-03-29T16:31:46.518Z,13.23
2023-03-29T16:34:16.178Z,12.53
2023-03-29T16:36:45.970Z,12.80
2023-03-29T16:39:14.635Z,13.90
2023-03-29T16:41:45.160Z,13.90
2023-03-29T16:44:16.446Z,14.20
2023-03-29T16:46:44.894Z,13.40
2023-03-29T16:49:18.113Z,12.90
2023-03-29T16:51:48.405Z,14.10
2023-03-29T16:54:18.827Z,14.73
2023-03-29T16:56:47.059Z,13.40
2023-03-29T16:59:15.437Z,14.90
2023-03-29T17:01:44.067Z,15.20
2023-03-29T17:04:12.177Z,14.83
2023-03-29T17:06:40.866Z,13.90
2023-03-29T17:09:10.356Z,14.43
2023-03-29T17:11:38.637Z,15.20
2023-03-29T17:14:06.906Z,15.00
2023-03-29T17:16:35.089Z,16.07
2023-03-29T17:19:03.274Z,15.50
2023-03-29T17:21:31.798Z,18.07
2023-03-29T17:23:59.793Z,21.37
2023-03-29T17:26:29.390Z,17.67
2023-03-29T17:28:57.580Z,14.80
2023-03-29T17:31:28.132Z,14.77
2023-03-29T17:33:56.365Z,14.97
2023-03-29T17:36:25.291Z,15.20
2023-03-29T17:38:54.621Z,14.77
2023-03-29T17:41:22.886Z,15.33
2023-03-29T17:43:54.603Z,15.20
2023-03-29T17:46:23.711Z,16.27
2023-03-29T17:48:59.042Z,15.10
2023-03-29T17:51:27.850Z,16.03
2023-03-29T17:53:57.117Z,16.17
2023-03-29T17:56:26.650Z,17.40
2023-03-29T17:58:56.117Z,17.87
2023-03-29T18:01:24.344Z,20.33
2023-03-29T18:03:52.583Z,20.13
2023-03-29T18:06:24.746Z,19.40
2023-03-29T18:08:56.707Z,19.27
2023-03-29T18:11:25.611Z,19.00
2023-03-29T18:13:56.451Z,19.90
2023-03-29T18:16:24.961Z,20.33
2023-03-29T18:18:58.137Z,20.70
2023-03-29T18:21:34.679Z,21.20
2023-03-29T18:24:08.224Z,22.13
2023-03-29T18:26:39.563Z,23.20
2023-03-29T18:29:13.851Z,28.80
2023-03-29T18:31:42.751Z,25.50
2023-03-29T18:34:11.440Z,23.47
2023-03-29T18:36:39.598Z,25.43
2023-03-29T18:39:07.804Z,26.20
2023-03-29T18:41:37.596Z,25.70
2023-03-29T18:44:07.877Z,26.13
2023-03-29T18:46:37.604Z,26.27
2023-03-29T18:49:05.808Z,26.90
2023-03-29T18:51:34.755Z,27.60
2023-03-29T18:54:04.242Z,26.37
2023-03-29T18:56:32.799Z,28.20
2023-03-29T18:59:05.141Z,28.20
2023-03-29T19:01:33.704Z,27.10
2023-03-29T19:04:03.105Z,29.87
2023-03-29T19:06:31.718Z,29.03
2023-03-29T19:09:01.905Z,31.87
2023-03-29T19:11:30.526Z,31.17
2023-03-29T19:13:58.762Z,31.30
2023-03-29T19:16:27.499Z,31.80
2023-03-29T19:18:55.799Z,34.37
2023-03-29T19:21:25.254Z,35.13
2023-03-29T19:23:53.406Z,33.20
2023-03-29T19:26:21.692Z,33.43
2023-03-29T19:28:49.824Z,34.37
2023-03-29T19:31:17.984Z,33.97
2023-03-29T19:33:47.565Z,35.87
2023-03-29T19:36:15.741Z,36.27
2023-03-29T19:38:45.740Z,36.00
2023-03-29T19:41:13.963Z,39.20
2023-03-29T19:43:42.058Z,43.30
2023-03-29T19:46:13.307Z,37.27
2023-03-29T19:48:41.642Z,37.63
2023-03-29T19:51:10.061Z,37.30
2023-03-29T19:53:39.895Z,35.80
2023-03-29T19:56:13.171Z,37.83
2023-03-29T19:58:41.174Z,37.17
2023-03-29T20:01:09.364Z,35.73
2023-03-29T20:03:38.721Z,37.20
2023-03-29T20:06:09.839Z,39.20
2023-03-29T20:08:38.823Z,37.43
2023-03-29T20:11:10.006Z,35.27
2023-03-29T20:13:41.998Z,40.60
2023-03-29T20:16:12.430Z,37.83
2023-03-29T20:18:40.765Z,37.80
2023-03-29T20:21:10.311Z,37.43
2023-03-29T20:23:38.787Z,40.27
2023-03-29T20:26:07.340Z,38.67
2023-03-29T20:28:37.479Z,38.60
2023-03-29T20:31:10.434Z,39.73
2023-03-29T20:33:39.196Z,44.33
2023-03-29T20:36:08.473Z,39.13
2023-03-29T20:38:36.640Z,39.53
2023-03-29T20:41:05.776Z,37.30
2023-03-29T20:43:37.429Z,37.60
2023-03-29T20:46:14.302Z,37.67
2023-03-29T20:48:45.854Z,37.37
2023-03-29T20:51:14.213Z,37.90
2023-03-29T20:53:42.802Z,36.70
2023-03-29T20:56:10.808Z,36.97
2023-03-29T20:58:42.222Z,36.70
2023-03-29T21:01:12.265Z,36.50
2023-03-29T21:03:40.393Z,38.33
2023-03-29T21:06:09.422Z,36.33
2023-03-29T21:08:38.639Z,37.13
2023-03-29T21:11:08.080Z,36.00
2023-03-29T21:13:37.181Z,36.57
2023-03-29T21:16:05.756Z,36.40
2023-03-29T21:18:38.030Z,38.47
2023-03-29T21:21:08.173Z,39.50
2023-03-29T21:23:36.955Z,39.67
2023-03-29T21:26:06.745Z,37.73
2023-03-29T21:28:34.888Z,38.70
2023-03-29T21:31:06.355Z,35.83
2023-03-29T21:33:36.461Z,36.47
2023-03-29T21:36:04.908Z,36.23
2023-03-29T21:38:32.995Z,36.70
2023-03-29T21:41:02.426Z,35.30
2023-03-29T21:43:30.702Z,35.17
2023-03-29T21:45:59.191Z,34.80
2023-03-29T21:48:27.324Z,35.27
2023-03-29T21:50:56.734Z,35.80
2023-03-29T21:53:25.781Z,34.00
2023-03-29T21:55:53.893Z,33.77
2023-03-29T21:58:22.170Z,34.97
2023-03-29T22:00:50.301Z,34.03
2023-03-29T22:03:18.441Z,34.43
2023-03-29T22:06:01.799Z,34.37
2023-03-29T22:08:30.708Z,33.97
2023-03-29T22:10:58.811Z,34.77
2023-03-29T22:13:29.225Z,33.60
2023-03-29T22:15:59.043Z,34.70
2023-03-29T22:18:30.174Z,33.60
2023-03-29T22:20:59.688Z,32.40
2023-03-29T22:23:27.717Z,33.47
2023-03-29T22:25:55.986Z,32.03
2023-03-29T22:28:23.992Z,33.10
2023-03-29T22:30:52.196Z,32.97
2023-03-29T22:33:20.296Z,32.73
2023-03-29T22:35:48.317Z,33.40
2023-03-29T22:38:17.755Z,31.57
2023-03-29T22:40:45.990Z,30.77
2023-03-29T22:43:14.048Z,34.27
2023-03-29T22:45:42.124Z,34.10
2023-03-29T22:48:10.356Z,33.67
2023-03-29T22:50:38.490Z,35.30
2023-03-29T22:53:06.835Z,33.30
2023-03-29T22:55:36.591Z,32.90
2023-03-29T22:58:04.663Z,31.30
2023-03-29T23:00:32.833Z,32.17
2023-03-29T23:03:01.094Z,32.60
2023-03-29T23:05:29.750Z,32.30
2023-03-29T23:07:57.782Z,31.60
2023-03-29T23:10:28.789Z,30.03
2023-03-29T23:13:08.633Z,30.37
2023-03-29T23:15:37.289Z,30.87
2023-03-29T23:18:06.268Z,29.07
2023-03-29T23:20:34.346Z,30.63
2023-03-29T23:23:02.489Z,29.23
2023-03-29T23:25:31.374Z,30.37
2023-03-29T23:28:01.099Z,30.67
2023-03-29T23:30:30.862Z,29.37
2023-03-29T23:33:00.115Z,29.37
2023-03-29T23:35:28.280Z,28.40
2023-03-29T23:37:56.418Z,26.63
2023-03-29T23:40:24.540Z,28.37
2023-03-29T23:42:53.090Z,27.83
2023-03-29T23:45:22.459Z,27.07
2023-03-29T23:47:50.547Z,27.30
2023-03-29T23:50:18.767Z,26.43
2023-03-29T23:52:49.315Z,27.07
2023-03-29T23:55:17.406Z,26.87
2023-03-29T23:57:45.384Z,25.33
